Time;durP1;ratioP1;P1;durP2;ratioP2;P2;SDS_P1;SDS_P2;PMS_P1;PMS_P2;Temp;Humidity;BMP_temperature;BMP_pressure;BME280_temperature;BME280_humidity;BME280_pressure;Samples;Min_cycle;Max_cycle;Signal;HPM_P1;HPM_P2
2023/07/03 00:00:32;;;;;;;20.98;5.47;;;;;;;14.51;100.00;100857.50;4998431;28;20025;-65
2023/07/03 00:02:57;;;;;;;22.05;5.13;;;;;;;14.47;100.00;100858.44;5016275;28;20045;-60
2023/07/03 00:05:23;;;;;;;21.65;4.97;;;;;;;14.45;100.00;100862.91;5016143;28;20026;-66
2023/07/03 00:07:49;;;;;;;21.98;5.50;;;;;;;14.46;100.00;100857.56;5015945;28;20030;-62
2023/07/03 00:10:16;;;;;;;21.02;5.30;;;;;;;14.43;100.00;100857.59;5016143;28;20473;-63
2023/07/03 00:12:42;;;;;;;22.63;5.45;;;;;;;14.46;100.00;100854.03;5015870;28;20156;-65
2023/07/03 00:15:08;;;;;;;21.23;5.10;;;;;;;14.49;100.00;100846.03;5015814;28;20030;-65
2023/07/03 00:17:34;;;;;;;19.63;4.90;;;;;;;14.51;100.00;100852.19;5016057;28;20436;-62
2023/07/03 00:19:59;;;;;;;21.65;5.25;;;;;;;14.47;100.00;100850.47;5015649;28;20030;-61
2023/07/03 00:22:24;;;;;;;22.13;5.30;;;;;;;14.53;100.00;100855.69;5015602;28;20398;-65
2023/07/03 00:24:50;;;;;;;22.50;5.10;;;;;;;14.45;100.00;100846.94;5015941;28;20029;-66
2023/07/03 00:27:16;;;;;;;21.63;5.45;;;;;;;14.45;100.00;100852.28;5015679;28;20048;-63
2023/07/03 00:29:42;;;;;;;22.45;5.10;;;;;;;14.39;100.00;100847.91;5015583;28;20065;-64
2023/07/03 00:32:07;;;;;;;23.77;4.93;;;;;;;14.39;100.00;100841.72;4998208;28;20514;-65
2023/07/03 00:34:33;;;;;;;21.08;4.80;;;;;;;14.41;100.00;100845.22;5015765;28;20029;-65
2023/07/03 00:36:58;;;;;;;21.35;4.88;;;;;;;14.41;100.00;100853.19;4997791;28;20436;-62
2023/07/03 00:39:24;;;;;;;21.98;5.40;;;;;;;14.37;100.00;100846.16;5015918;28;20489;-65
2023/07/03 00:41:49;;;;;;;22.67;5.60;;;;;;;14.37;100.00;100847.06;5015356;28;20034;-64
2023/07/03 00:44:18;;;;;;;23.98;5.32;;;;;;;14.37;100.00;100849.72;5015300;28;20504;-61
2023/07/03 00:46:47;;;;;;;21.33;4.97;;;;;;;14.36;100.00;100847.03;5015446;28;20527;-66
2023/07/03 00:49:13;;;;;;;22.05;5.13;;;;;;;14.34;100.00;100844.41;5015257;28;20026;-64
2023/07/03 00:51:43;;;;;;;23.02;5.13;;;;;;;14.36;100.00;100844.38;5015139;28;20088;-65
2023/07/03 00:54:09;;;;;;;23.25;4.97;;;;;;;14.37;100.00;100840.81;5015334;28;20028;-61
2023/07/03 00:56:34;;;;;;;22.27;5.22;;;;;;;14.32;100.00;100840.03;5015033;28;20105;-61
2023/07/03 00:59:01;;;;;;;23.80;5.32;;;;;;;14.30;100.00;100843.56;5014285;28;20045;-61
2023/07/03 01:01:43;;;;;;;23.08;5.43;;;;;;;14.29;100.00;100844.44;5014714;28;20052;-64
2023/07/03 01:04:25;;;;;;;23.75;5.50;;;;;;;14.34;100.00;100838.22;5015198;28;20506;-66
2023/07/03 01:06:56;;;;;;;21.83;5.10;;;;;;;14.27;100.00;100843.59;5014998;28;20033;-65
2023/07/03 01:09:27;;;;;;;21.73;5.07;;;;;;;14.27;100.00;100848.03;5011002;28;20030;-66
2023/07/03 01:11:53;;;;;;;23.50;5.32;;;;;;;14.23;100.00;100830.38;5010847;28;20029;-65
2023/07/03 01:14:22;;;;;;;21.42;4.80;;;;;;;14.18;100.00;100838.38;5015000;28;20075;-65
2023/07/03 01:16:49;;;;;;;22.73;5.35;;;;;;;14.17;100.00;100835.72;5015006;28;20083;-65
2023/07/03 01:19:22;;;;;;;22.98;5.25;;;;;;;14.22;100.00;100831.25;5014665;28;20036;-61
2023/07/03 01:22:13;;;;;;;;;;;;;;;14.21;100.00;100841.03;5015312;28;20381;-60
2023/07/03 01:24:53;;;;;;;22.90;4.90;;;;;;;14.16;100.00;100841.97;5009874;28;19917;-60
2023/07/03 01:27:23;;;;;;;25.58;5.53;;;;;;;14.08;100.00;100842.00;5014795;28;20033;-60
2023/07/03 01:29:51;;;;;;;23.25;5.32;;;;;;;14.03;100.00;100838.53;5014622;28;20040;-65
2023/07/03 01:32:20;;;;;;;23.48;5.47;;;;;;;14.00;100.00;100839.44;5014340;28;20055;-66
2023/07/03 01:34:46;;;;;;;23.63;5.25;;;;;;;13.99;100.00;100837.66;5014366;28;20017;-66
2023/07/03 01:37:17;;;;;;;23.05;5.30;;;;;;;13.98;100.00;100835.03;5014567;28;20028;-67
2023/07/03 01:39:45;;;;;;;25.20;5.63;;;;;;;13.98;100.00;100835.03;5014341;28;20049;-66
2023/07/03 01:42:12;;;;;;;24.63;5.45;;;;;;;13.95;100.00;100833.31;5014280;28;20505;-66
2023/07/03 01:44:38;;;;;;;24.52;5.30;;;;;;;13.89;100.00;100836.91;5014453;28;20029;-65
2023/07/03 01:47:10;;;;;;;24.35;5.28;;;;;;;13.90;100.00;100832.47;5014172;28;20034;-66
2023/07/03 01:49:36;;;;;;;26.10;5.88;;;;;;;13.89;100.00;100820.97;5014141;28;20057;-66
2023/07/03 01:52:23;;;;;;;23.70;5.10;;;;;;;13.91;100.00;100828.91;5014230;28;20113;-67
2023/07/03 01:55:00;;;;;;;25.75;5.75;;;;;;;13.84;100.00;100829.88;5014087;28;20465;-60
2023/07/03 01:57:40;;;;;;;25.35;5.72;;;;;;;13.82;100.00;100829.88;5010718;28;20473;-63
2023/07/03 02:00:09;;;;;;;23.23;5.40;;;;;;;13.79;100.00;100827.25;5014032;28;20026;-63
2023/07/03 02:02:36;;;;;;;24.13;5.25;;;;;;;13.77;100.00;100837.00;5013787;28;20499;-66
2023/07/03 02:05:10;;;;;;;22.73;5.47;;;;;;;13.73;100.00;100821.97;5013840;28;20030;-66
2023/07/03 02:07:37;;;;;;;25.92;5.78;;;;;;;13.76;100.00;100827.25;5013979;28;20485;-65
2023/07/03 02:10:03;;;;;;;25.95;5.65;;;;;;;13.69;100.00;100829.09;5013791;28;20055;-66
2023/07/03 02:12:29;;;;;;;25.50;5.60;;;;;;;13.61;100.00;100815.00;5013641;28;20049;-66
2023/07/03 02:14:59;;;;;;;23.42;5.53;;;;;;;13.59;100.00;100828.31;5013893;28;20029;-65
2023/07/03 02:17:24;;;;;;;26.80;5.95;;;;;;;13.51;100.00;100830.13;4996734;28;20030;-65
2023/07/03 02:19:50;;;;;;;22.45;5.30;;;;;;;13.51;100.00;100822.16;5013749;28;20088;-66
2023/07/03 02:22:15;;;;;;;23.92;5.70;;;;;;;13.42;100.00;100819.59;5013417;28;20528;-65
2023/07/03 02:24:40;;;;;;;25.52;5.95;;;;;;;13.36;100.00;100820.50;5013529;28;20045;-64
2023/07/03 02:27:06;;;;;;;27.52;5.90;;;;;;;13.34;100.00;100829.34;5013382;28;20036;-66
2023/07/03 02:29:31;;;;;;;25.77;6.30;;;;;;;13.33;100.00;100825.81;5013616;28;20382;-66
2023/07/03 02:31:57;;;;;;;24.50;5.97;;;;;;;13.25;100.00;100815.25;5013310;28;20037;-65
2023/07/03 02:34:22;;;;;;;25.40;5.95;;;;;;;13.26;100.00;100813.47;5013311;28;20037;-64
2023/07/03 02:36:48;;;;;;;27.38;5.93;;;;;;;13.22;100.00;100820.59;5013486;28;20026;-66
2023/07/03 02:39:14;;;;;;;26.20;6.00;;;;;;;13.15;100.00;100808.25;5013492;28;20470;-65
2023/07/03 02:41:39;;;;;;;26.05;6.28;;;;;;;13.11;100.00;100818.91;5013228;28;20036;-63
2023/07/03 02:44:04;;;;;;;26.55;6.22;;;;;;;13.07;100.00;100818.03;5013356;28;20026;-65
2023/07/03 02:46:30;;;;;;;26.00;5.90;;;;;;;13.02;100.00;100809.22;5013168;28;20073;-65
2023/07/03 02:48:55;;;;;;;26.27;6.20;;;;;;;12.99;100.00;100807.47;5013201;28;20021;-62
2023/07/03 02:51:21;;;;;;;25.30;6.30;;;;;;;13.03;100.00;100808.31;5013179;28;20433;-65
2023/07/03 02:53:46;;;;;;;27.02;6.38;;;;;;;13.03;100.00;100805.66;5013004;28;20041;-61
2023/07/03 02:56:11;;;;;;;25.58;6.20;;;;;;;12.94;100.00;100806.59;5013131;28;20030;-61
2023/07/03 02:58:37;;;;;;;25.67;6.15;;;;;;;12.91;100.00;100806.63;5012983;28;20052;-66
2023/07/03 03:01:03;;;;;;;25.33;6.10;;;;;;;12.86;100.00;100806.66;5013110;28;20092;-63
2023/07/03 03:03:29;;;;;;;25.77;6.47;;;;;;;12.79;100.00;100809.38;5013222;28;20068;-60
2023/07/03 03:05:55;;;;;;;28.60;6.38;;;;;;;12.77;100.00;100808.47;5012985;28;20026;-60
2023/07/03 03:08:22;;;;;;;27.45;6.80;;;;;;;12.78;100.00;100811.13;5012834;28;20029;-63
2023/07/03 03:10:47;;;;;;;27.38;6.07;;;;;;;12.78;100.00;100811.13;5013224;28;20060;-61
2023/07/03 03:13:13;;;;;;;26.25;6.30;;;;;;;12.74;100.00;100804.06;5012899;28;20117;-63
2023/07/03 03:15:38;;;;;;;26.42;6.30;;;;;;;12.74;100.00;100814.66;5012778;28;20117;-61
2023/07/03 03:18:04;;;;;;;27.42;6.95;;;;;;;12.70;100.00;100808.50;5012978;28;20030;-64
2023/07/03 03:20:29;;;;;;;26.33;6.97;;;;;;;12.75;100.00;100811.13;5012750;28;20037;-61
2023/07/03 03:22:55;;;;;;;30.40;6.95;;;;;;;12.76;100.00;100801.44;5013587;28;20056;-65
2023/07/03 03:25:20;;;;;;;27.13;6.57;;;;;;;12.81;100.00;100808.44;5016984;28;20057;-68
2023/07/03 03:27:45;;;;;;;30.95;7.10;;;;;;;12.78;100.00;100797.84;5016765;28;20076;-67
2023/07/03 03:30:11;;;;;;;26.98;6.40;;;;;;;12.79;100.00;100796.97;5016712;28;20034;-67
2023/07/03 03:32:37;;;;;;;28.63;6.93;;;;;;;12.73;100.00;100797.88;5016784;28;20080;-66
2023/07/03 03:35:02;;;;;;;29.17;6.70;;;;;;;12.67;100.00;100805.00;5016695;28;20092;-67
2023/07/03 03:37:28;;;;;;;26.50;6.97;;;;;;;12.64;100.00;100805.00;5017080;28;20037;-68
2023/07/03 03:39:53;;;;;;;26.80;6.55;;;;;;;12.69;100.00;100803.22;5012770;28;20425;-68
2023/07/03 03:42:18;;;;;;;26.75;6.63;;;;;;;12.66;100.00;100801.44;5016417;28;20061;-67
2023/07/03 03:44:44;;;;;;;27.35;6.32;;;;;;;12.61;100.00;100803.25;5016898;28;20030;-67
2023/07/03 03:47:10;;;;;;;29.92;7.10;;;;;;;12.62;100.00;100802.34;5016425;28;20033;-68
2023/07/03 03:49:36;;;;;;;29.20;7.28;;;;;;;12.66;100.00;100808.53;5016386;28;20042;-67
2023/07/03 03:52:01;;;;;;;27.85;6.75;;;;;;;12.64;100.00;100803.25;5016478;28;20030;-67
2023/07/03 03:54:27;;;;;;;28.52;6.88;;;;;;;12.66;100.00;100804.09;5016338;28;20030;-67
2023/07/03 03:56:53;;;;;;;28.58;6.90;;;;;;;12.70;100.00;100810.28;5016191;28;20058;-67
2023/07/03 03:59:19;;;;;;;28.25;6.93;;;;;;;12.67;100.00;100813.84;5016305;28;20080;-67
2023/07/03 04:01:45;;;;;;;28.20;7.15;;;;;;;12.65;100.00;100798.81;5016168;28;20034;-68
2023/07/03 04:04:10;;;;;;;31.50;7.72;;;;;;;12.61;100.00;100811.22;5016065;28;20026;-68
2023/07/03 04:06:37;;;;;;;28.20;6.97;;;;;;;12.58;100.00;100818.28;5016216;28;20544;-67
2023/07/03 04:09:04;;;;;;;26.35;7.07;;;;;;;12.60;100.00;100813.88;5016276;28;20025;-68
2023/07/03 04:11:30;;;;;;;29.13;7.40;;;;;;;12.60;100.00;100811.22;5016106;28;20496;-61
2023/07/03 04:13:55;;;;;;;29.35;7.40;;;;;;;12.63;100.00;100816.50;5016215;28;20072;-66
2023/07/03 04:16:22;;;;;;;27.70;6.93;;;;;;;12.72;100.00;100811.16;5015876;28;20061;-60
2023/07/03 04:18:47;;;;;;;27.77;6.72;;;;;;;12.76;100.00;100817.34;5016083;28;20092;-61
2023/07/03 04:21:12;;;;;;;29.05;7.45;;;;;;;12.72;100.00;100816.47;4998473;28;20034;-65
2023/07/03 04:23:38;;;;;;;29.15;7.20;;;;;;;12.77;100.00;100812.03;5015979;28;20049;-66
2023/07/03 04:26:04;;;;;;;29.13;7.57;;;;;;;12.86;100.00;100806.66;5015798;28;20116;-63
2023/07/03 04:28:29;;;;;;;29.75;7.68;;;;;;;12.95;100.00;100816.34;5015642;28;20029;-62
2023/07/03 04:30:54;;;;;;;28.60;7.22;;;;;;;13.00;100.00;100803.03;5015573;28;20041;-64
2023/07/03 04:33:20;;;;;;;30.67;8.18;;;;;;;12.96;100.00;100804.84;5015699;28;20028;-66
2023/07/03 04:35:47;;;;;;;25.42;6.82;;;;;;;12.88;100.00;100810.16;5015753;28;20030;-66
2023/07/03 04:38:12;;;;;;;29.10;7.57;;;;;;;12.82;100.00;100812.88;5015396;28;20029;-63
2023/07/03 04:40:38;;;;;;;29.27;7.47;;;;;;;12.81;100.00;100819.06;5015536;28;20033;-63
2023/07/03 04:43:07;;;;;;;28.98;7.28;;;;;;;12.86;100.00;100811.97;5015372;28;20034;-63
2023/07/03 04:45:40;;;;;;;32.40;7.95;;;;;;;12.91;100.00;100817.25;5015547;28;20037;-66
2023/07/03 04:48:06;;;;;;;30.08;7.75;;;;;;;12.99;100.00;100825.16;5015497;28;20029;-62
2023/07/03 04:50:31;;;;;;;26.65;7.18;;;;;;;13.04;100.00;100821.56;5015463;28;20370;-62
2023/07/03 04:52:57;;;;;;;26.02;7.03;;;;;;;13.13;100.00;100823.28;5003418;28;20037;-60
2023/07/03 04:55:22;;;;;;;27.77;7.25;;;;;;;13.19;100.00;100827.69;5006778;28;20374;-64
2023/07/03 04:57:48;;;;;;;27.15;7.38;;;;;;;13.21;100.00;100831.22;5003836;28;20116;-64
2023/07/03 05:00:16;;;;;;;32.00;7.70;;;;;;;13.19;100.00;100833.88;5006410;28;20465;-65
2023/07/03 05:02:46;;;;;;;28.92;7.20;;;;;;;13.19;100.00;100838.28;5014121;28;20507;-68
2023/07/03 05:05:13;;;;;;;28.70;7.30;;;;;;;13.29;100.00;100834.69;5011281;28;20377;-61
2023/07/03 05:07:40;;;;;;;27.63;7.15;;;;;;;13.37;100.00;100834.69;5014774;28;20030;-65
2023/07/03 05:10:07;;;;;;;28.20;7.32;;;;;;;13.45;100.00;100835.50;5014719;28;20037;-66
2023/07/03 05:12:33;;;;;;;26.77;6.82;;;;;;;13.59;100.00;100833.59;5015088;28;20366;-65
2023/07/03 05:14:59;;;;;;;28.40;6.95;;;;;;;13.75;100.00;100846.78;5014215;28;20479;-63
2023/07/03 05:17:24;;;;;;;26.35;6.65;;;;;;;13.94;100.00;100845.69;5014677;28;20512;-65
2023/07/03 05:19:50;;;;;;;30.45;7.53;;;;;;;14.08;100.00;100847.34;5014685;28;20113;-64
2023/07/03 05:22:16;;;;;;;26.65;6.80;;;;;;;14.22;100.00;100837.44;5014180;28;20102;-61
2023/07/03 05:24:41;;;;;;;29.55;7.28;;;;;;;14.34;100.00;100852.38;5014930;28;20061;-63
2023/07/03 05:27:06;;;;;;;26.30;6.80;;;;;;;14.57;100.00;100849.44;5013990;28;20034;-65
2023/07/03 05:29:33;;;;;;;26.67;7.22;;;;;;;14.69;100.00;100867.06;5014531;28;20029;-65
2023/07/03 05:32:00;;;;;;;29.27;7.40;;;;;;;14.76;100.00;100859.91;5014447;28;20388;-65
2023/07/03 05:34:26;;;;;;;26.48;6.88;;;;;;;14.81;100.00;100858.94;5014273;28;20384;-65
2023/07/03 05:36:52;;;;;;;26.25;6.72;;;;;;;14.78;100.00;100855.44;5014100;28;20033;-65
2023/07/03 05:39:17;;;;;;;26.05;6.20;;;;;;;14.76;100.00;100862.56;5013990;28;20026;-66
2023/07/03 05:41:43;;;;;;;28.70;7.20;;;;;;;14.69;100.00;100856.44;5014072;28;20108;-64
2023/07/03 05:44:08;;;;;;;27.90;6.60;;;;;;;14.69;100.00;100860.88;5014110;28;20076;-66
2023/07/03 05:46:33;;;;;;;26.60;6.53;;;;;;;14.73;100.00;100868.81;4996248;28;20041;-66
2023/07/03 05:48:59;;;;;;;26.60;6.75;;;;;;;14.72;100.00;100863.50;5013912;28;20022;-68
2023/07/03 05:51:24;;;;;;;27.98;7.07;;;;;;;14.79;100.00;100857.19;5013445;28;20096;-67
2023/07/03 05:53:50;;;;;;;24.98;6.43;;;;;;;14.84;100.00;100868.69;5014157;28;20030;-66
2023/07/03 05:56:16;;;;;;;26.17;6.82;;;;;;;14.84;100.00;100863.38;5013855;28;20060;-70
2023/07/03 05:58:41;;;;;;;26.55;6.68;;;;;;;14.82;100.00;100857.16;5004433;28;20073;-65
2023/07/03 06:01:06;;;;;;;26.52;6.97;;;;;;;14.74;100.00;100865.25;5003030;28;20042;-68
2023/07/03 06:03:32;;;;;;;28.20;7.18;;;;;;;14.77;100.00;100880.31;5014165;28;20030;-68
2023/07/03 06:05:58;;;;;;;29.42;7.30;;;;;;;14.79;100.00;100868.75;5013844;28;20028;-68
2023/07/03 06:08:23;;;;;;;24.55;6.53;;;;;;;14.93;100.00;100873.00;5013863;28;20446;-68
2023/07/03 06:10:49;;;;;;;27.30;6.82;;;;;;;15.04;100.00;100870.19;5013404;28;20041;-68
2023/07/03 06:13:15;;;;;;;27.42;6.53;;;;;;;15.16;100.00;100867.38;5013861;28;20038;-68
2023/07/03 06:15:41;;;;;;;28.10;6.75;;;;;;;15.21;100.00;100860.19;5013199;28;20026;-69
2023/07/03 06:18:07;;;;;;;27.67;6.82;;;;;;;15.16;100.00;100865.56;5013469;28;20077;-70
2023/07/03 06:20:33;;;;;;;26.40;6.60;;;;;;;15.20;100.00;100873.50;5013661;28;20054;-68
2023/07/03 06:22:58;;;;;;;26.77;6.82;;;;;;;15.25;100.00;100872.56;5013191;28;20124;-69
2023/07/03 06:25:25;;;;;;;26.48;6.20;;;;;;;15.31;100.00;100871.59;5013646;28;20390;-68
2023/07/03 06:27:51;;;;;;;26.00;6.28;;;;;;;15.30;100.00;100876.03;5014659;28;20069;-67
2023/07/03 06:30:17;;;;;;;26.40;6.68;;;;;;;15.39;100.00;100868.78;5013310;28;20029;-67
2023/07/03 06:32:42;;;;;;;25.98;6.78;;;;;;;15.47;100.00;100867.78;5013097;28;20069;-66
2023/07/03 06:35:08;;;;;;;25.73;6.20;;;;;;;15.50;100.00;100872.19;5013288;28;20026;-66
2023/07/03 06:37:34;;;;;;;27.23;6.97;;;;;;;15.52;100.00;100863.28;5013108;28;20385;-69
2023/07/03 06:39:59;;;;;;;26.67;6.88;;;;;;;15.55;100.00;100875.63;5016592;28;20029;-68
2023/07/03 06:42:24;;;;;;;24.70;6.40;;;;;;;15.58;100.00;100858.72;4995744;28;20034;-69
2023/07/03 06:44:50;;;;;;;25.17;6.07;;;;;;;15.56;100.00;100852.56;4995408;28;20034;-68
2023/07/03 06:47:15;;;;;;;25.23;5.78;;;;;;;15.52;100.00;100868.59;5012958;28;20038;-68
2023/07/03 06:49:40;;;;;;;23.45;5.88;;;;;;;15.59;100.00;100861.38;5013060;28;20026;-67
2023/07/03 06:52:07;;;;;;;24.13;6.03;;;;;;;15.67;100.00;100858.59;5012714;28;20598;-68
2023/07/03 06:54:32;;;;;;;24.85;6.15;;;;;;;15.73;100.00;100850.50;5013235;28;20113;-69
2023/07/03 06:56:59;;;;;;;24.92;5.82;;;;;;;15.90;100.00;100852.91;5012355;28;20110;-66
2023/07/03 06:59:25;;;;;;;23.63;5.78;;;;;;;15.97;100.00;100857.19;5012506;28;20037;-65
2023/07/03 07:01:50;;;;;;;23.88;5.63;;;;;;;16.08;100.00;100861.50;5012901;28;20091;-66
2023/07/03 07:04:15;;;;;;;25.45;5.70;;;;;;;16.22;100.00;100867.41;5013020;28;20484;-66
2023/07/03 07:06:41;;;;;;;24.88;5.43;;;;;;;16.26;100.00;100870.94;5012663;28;20457;-64
2023/07/03 07:09:06;;;;;;;23.70;5.60;;;;;;;16.29;100.00;100882.41;5013792;28;20374;-66
2023/07/03 07:11:34;;;;;;;24.40;6.00;;;;;;;16.35;100.00;100892.06;4996663;28;20115;-67
2023/07/03 07:14:01;;;;;;;25.75;5.97;;;;;;;16.36;100.00;100889.38;5006043;28;20075;-69
2023/07/03 07:16:34;;;;;;;23.73;5.30;;;;;;;16.36;100.00;100885.84;5014248;28;20358;-65
2023/07/03 07:19:03;;;;;;;23.73;5.53;;;;;;;16.34;100.00;100885.88;5016013;28;20033;-68
2023/07/03 07:21:33;;;;;;;23.95;5.70;;;;;;;16.31;100.00;100883.28;5013560;28;20618;-67
2023/07/03 07:24:11;;;;;;;24.00;5.55;;;;;;;16.26;100.00;100890.47;5016920;28;20095;-67
2023/07/03 07:26:37;;;;;;;25.42;6.20;;;;;;;16.34;100.00;100872.53;5014511;28;20072;-66
2023/07/03 07:29:03;;;;;;;25.35;5.97;;;;;;;16.43;100.00;100889.28;5017204;28;20071;-67
2023/07/03 07:31:29;;;;;;;24.02;6.07;;;;;;;16.35;100.00;100889.41;5014084;28;20041;-66
2023/07/03 07:33:55;;;;;;;23.50;5.80;;;;;;;16.30;100.00;100885.97;5015653;28;20029;-67
2023/07/03 07:36:22;;;;;;;23.98;6.05;;;;;;;16.14;100.00;100880.03;5011518;28;20488;-67
2023/07/03 07:38:54;;;;;;;25.92;5.53;;;;;;;16.10;100.00;100875.66;5013480;28;20104;-67
2023/07/03 07:41:20;;;;;;;24.60;6.25;;;;;;;16.19;100.00;100911.06;5011502;28;20084;-65
2023/07/03 07:43:48;;;;;;;22.15;5.60;;;;;;;16.58;100.00;100896.97;5012705;28;20030;-64
2023/07/03 07:46:14;;;;;;;24.70;6.30;;;;;;;17.21;100.00;100892.13;5012384;28;20022;-67
2023/07/03 07:48:39;;;;;;;25.45;5.80;;;;;;;17.37;100.00;100890.00;5012389;28;20061;-65
2023/07/03 07:51:10;;;;;;;23.67;5.22;;;;;;;17.31;100.00;100915.06;5012034;28;20103;-70
2023/07/03 07:53:35;;;;;;;24.30;5.35;;;;;;;17.30;100.00;100897.28;5012431;28;20053;-69
2023/07/03 07:56:01;;;;;;;22.48;5.38;;;;;;;17.32;100.00;100902.59;5012318;28;20177;-69
2023/07/03 07:58:27;;;;;;;21.67;5.32;;;;;;;17.33;100.00;100897.22;5012583;28;20116;-69
2023/07/03 08:00:54;;;;;;;24.58;5.38;;;;;;;17.42;100.00;100913.03;4994686;28;20489;-69
2023/07/03 08:03:19;;;;;;;23.63;5.50;;;;;;;17.46;100.00;100912.94;5011891;28;20057;-68
2023/07/03 08:05:45;;;;;;;23.42;5.50;;;;;;;17.41;100.00;100908.56;5012445;28;20158;-68
2023/07/03 08:08:10;;;;;;;22.92;5.05;;;;;;;17.39;100.00;100918.44;5012240;28;20045;-69
2023/07/03 08:10:36;;;;;;;22.38;4.55;;;;;;;17.40;100.00;100913.97;5015536;28;20117;-70
2023/07/03 08:13:01;;;;;;;22.05;4.53;;;;;;;17.49;100.00;100913.78;5015832;28;20109;-70
2023/07/03 08:15:27;;;;;;;20.73;4.78;;;;;;;17.80;98.83;100906.81;5015882;28;20037;-70
2023/07/03 08:17:53;;;;;;;21.55;4.72;;;;;;;17.71;99.16;100914.13;5015903;28;20105;-70
2023/07/03 08:20:18;;;;;;;21.95;4.70;;;;;;;17.52;98.19;100915.50;5015656;28;20076;-69
2023/07/03 08:22:44;;;;;;;22.65;4.75;;;;;;;17.37;98.35;100920.28;5015655;28;20038;-70
2023/07/03 08:25:10;;;;;;;22.58;4.97;;;;;;;17.43;100.00;100928.16;5016172;28;20030;-70
2023/07/03 08:27:36;;;;;;;23.55;5.03;;;;;;;17.23;100.00;100923.25;5015724;28;20040;-70
2023/07/03 08:30:03;;;;;;;22.75;5.10;;;;;;;17.23;99.75;100927.72;4998017;28;20034;-70
2023/07/03 08:32:28;;;;;;;22.08;4.65;;;;;;;17.35;100.00;100924.75;5015787;28;20509;-70
2023/07/03 08:34:54;;;;;;;22.00;4.78;;;;;;;17.42;93.24;100947.75;5015582;28;20030;-70
2023/07/03 08:37:19;;;;;;;20.88;4.90;;;;;;;17.45;95.51;100932.59;5015565;28;20045;-70
2023/07/03 08:39:44;;;;;;;21.73;5.22;;;;;;;17.55;96.19;100929.66;5015686;28;20424;-70
2023/07/03 08:42:18;;;;;;;22.90;5.00;;;;;;;17.53;96.28;100936.84;5007573;28;20120;-70
2023/07/03 08:44:44;;;;;;;22.42;4.97;;;;;;;17.46;91.39;100937.00;5012032;28;20030;-66
2023/07/03 08:47:15;;;;;;;22.25;5.10;;;;;;;17.48;90.89;100943.19;5015570;28;20105;-66
2023/07/03 08:49:44;;;;;;;21.70;4.97;;;;;;;17.50;92.42;100930.66;5011325;28;20164;-68
2023/07/03 08:52:11;;;;;;;21.48;5.18;;;;;;;17.76;95.16;100936.28;5015053;28;20029;-68
2023/07/03 08:54:39;;;;;;;20.88;5.18;;;;;;;18.05;88.49;100940.06;5015419;28;20069;-66
2023/07/03 08:57:08;;;;;;;20.48;5.40;;;;;;;17.98;87.47;100935.78;5015298;28;20037;-67
2023/07/03 08:59:34;;;;;;;22.45;5.80;;;;;;;17.81;90.03;100935.28;5014971;28;20026;-68
2023/07/03 09:02:14;;;;;;;22.80;5.35;;;;;;;17.59;92.02;100938.47;5015345;28;20041;-65
2023/07/03 09:05:12;;;;;;;24.05;5.60;;;;;;;17.55;87.78;100929.66;5015158;28;20083;-66
2023/07/03 09:07:43;;;;;;;21.17;5.32;;;;;;;17.55;86.49;100944.81;5014568;28;20033;-66
2023/07/03 09:10:19;;;;;;;23.02;5.80;;;;;;;17.63;86.96;100929.47;5015329;28;20377;-68
2023/07/03 09:12:51;;;;;;;21.25;5.18;;;;;;;17.85;86.22;100936.97;5015126;28;20034;-64
2023/07/03 09:15:30;;;;;;;22.75;5.72;;;;;;;17.96;86.34;100934.94;5011607;28;20038;-68
2023/07/03 09:17:58;;;;;;;22.73;5.28;;;;;;;18.42;84.96;100925.75;5014729;28;20374;-66
2023/07/03 09:20:26;;;;;;;21.70;5.55;;;;;;;18.76;79.30;100924.78;5013757;28;20033;-67
2023/07/03 09:22:56;;;;;;;21.65;5.63;;;;;;;18.79;75.69;100935.41;5014584;28;20049;-68
2023/07/03 09:25:44;;;;;;;22.75;5.50;;;;;;;18.70;77.99;100927.66;5014588;28;20026;-64
2023/07/03 09:28:10;;;;;;;22.92;5.85;;;;;;;18.50;74.60;100927.34;5014595;28;20148;-67
2023/07/03 09:30:36;;;;;;;22.88;5.53;;;;;;;18.27;73.94;100923.47;4997217;28;20125;-67
2023/07/03 09:33:02;;;;;;;21.05;5.50;;;;;;;17.92;75.41;100922.56;5014617;28;20456;-67
2023/07/03 09:35:35;;;;;;;23.20;5.65;;;;;;;17.98;80.02;100922.41;5014459;28;20034;-70
2023/07/03 09:38:04;;;;;;;23.02;6.18;;;;;;;18.17;78.63;100948.69;5014388;28;20196;-70
2023/07/03 09:40:34;;;;;;;22.45;5.60;;;;;;;18.34;78.26;100932.22;5004817;28;20037;-69
2023/07/03 09:43:00;;;;;;;23.42;6.20;;;;;;;18.98;75.38;100934.94;5005637;28;20418;-70
2023/07/03 09:45:32;;;;;;;23.48;5.70;;;;;;;19.41;71.08;100943.47;5002395;28;20022;-70
2023/07/03 09:48:00;;;;;;;21.38;5.95;;;;;;;19.43;68.79;100926.41;5005524;28;20022;-69
2023/07/03 09:50:30;;;;;;;20.50;5.70;;;;;;;19.40;68.17;100933.69;5002710;28;20022;-70
2023/07/03 09:52:57;;;;;;;21.17;5.82;;;;;;;19.43;73.84;100931.78;5005959;28;20484;-70
2023/07/03 09:55:26;;;;;;;21.67;5.50;;;;;;;19.71;68.28;100933.59;5002602;28;20429;-69
2023/07/03 09:57:52;;;;;;;21.65;5.45;;;;;;;19.80;64.71;100937.81;5010401;28;20402;-70
2023/07/03 10:00:20;;;;;;;19.98;5.65;;;;;;;20.01;62.79;100937.09;5013910;28;20032;-69
2023/07/03 10:02:50;;;;;;;22.08;5.97;;;;;;;20.41;60.63;100929.47;5013889;28;20032;-70
2023/07/03 10:05:25;;;;;;;22.17;6.25;;;;;;;20.73;59.51;100930.16;5013784;28;20495;-70
2023/07/03 10:07:55;;;;;;;21.67;6.03;;;;;;;20.41;60.27;100929.47;5010087;28;20030;-70
2023/07/03 10:10:27;;;;;;;22.00;5.88;;;;;;;20.05;59.44;100943.22;5013784;28;20036;-70
2023/07/03 10:13:12;;;;;;;21.60;6.40;;;;;;;20.08;59.05;100929.72;5009826;28;20474;-70
2023/07/03 10:15:41;;;;;;;19.95;5.65;;;;;;;20.72;57.34;100941.81;5012016;28;20088;-70
2023/07/03 10:18:19;;;;;;;20.95;5.85;;;;;;;21.30;56.01;100949.50;5013592;28;20025;-69
2023/07/03 10:20:48;;;;;;;21.25;5.22;;;;;;;21.73;51.33;100960.44;5013895;28;20381;-71
2023/07/03 10:23:20;;;;;;;20.85;5.22;;;;;;;20.35;52.17;100951.16;5013409;28;20038;-70
2023/07/03 10:25:53;;;;;;;21.98;5.35;;;;;;;19.92;54.88;100933.84;5013467;28;20560;-70
2023/07/03 10:28:23;;;;;;;19.33;5.30;;;;;;;19.64;57.56;100949.00;5013421;28;20172;-70
2023/07/03 10:30:53;;;;;;;20.38;5.45;;;;;;;19.73;58.62;100949.63;5013585;28;20026;-70
2023/07/03 10:33:27;;;;;;;21.67;5.60;;;;;;;19.67;56.47;100942.66;5013740;28;20030;-70
2023/07/03 10:35:53;;;;;;;19.08;5.18;;;;;;;19.57;56.76;100941.19;5009421;28;20026;-70
2023/07/03 10:38:48;;;;;;;21.60;5.20;;;;;;;20.80;53.70;100950.50;5013324;28;20072;-70
2023/07/03 10:41:26;;;;;;;19.75;5.28;;;;;;;21.43;53.87;100963.34;5007419;28;20120;-70
2023/07/03 10:43:55;;;;;;;20.85;5.13;;;;;;;21.23;51.70;100950.69;5009348;28;20033;-70
2023/07/03 10:46:37;;;;;;;19.70;5.45;;;;;;;20.49;54.82;100965.00;5013391;28;20021;-64
2023/07/03 10:49:08;;;;;;;17.73;4.32;;;;;;;19.96;54.48;100946.22;5010790;28;20465;-67
2023/07/03 10:51:59;;;;;;;20.33;4.85;;;;;;;20.22;54.94;100965.94;5013036;28;20115;-65
2023/07/03 10:54:34;;;;;;;18.38;4.00;;;;;;;20.53;52.43;100952.31;5013399;28;20030;-66
2023/07/03 10:57:03;;;;;;;19.35;3.85;;;;;;;21.12;50.42;100948.41;5010196;28;20120;-63
2023/07/03 10:59:34;;;;;;;16.02;3.80;;;;;;;21.43;48.68;100963.34;5012885;28;20021;-65
2023/07/03 11:02:37;;;;;;;19.80;4.57;;;;;;;21.96;48.25;100946.03;5013371;28;20038;-65
2023/07/03 11:05:26;;;;;;;19.58;4.60;;;;;;;21.61;48.25;100964.50;5010660;28;20374;-63
2023/07/03 11:08:19;;;;;;;20.13;4.97;;;;;;;21.75;48.06;100969.31;5005128;28;20412;-66
2023/07/03 11:11:06;;;;;;;17.88;4.15;;;;;;;22.97;45.64;100945.25;4994640;28;20536;-64
2023/07/03 11:13:41;;;;;;;16.67;3.95;;;;;;;23.38;42.70;100955.97;5010139;28;20030;-63
2023/07/03 11:16:13;;;;;;;18.98;4.13;;;;;;;22.46;43.46;100950.22;5012799;28;20088;-63